Overseas Long Beach — WAAT — position and weather

sailwx.info

Track history (hours):
 
Tides and Currents Weather Stations Pressure Air Temp Water Temp Dewpoint Dewpoint Depression Visibility Wind Speed Wind Dir Waves Ship Positions

Overseas Long Beach

Owner: ASC Leasing II, Inc., KENNETT SQUARE, PA. More information available from US FCC via Universal Licensing System and Coast Guard Vessel Documentation Center.

Last reported at 2017-Sep-20 04:53 UTC. Time now 2017-Oct-22 17:39 UTC.
Position N 29°44' W 095°07'.
Warning: this ship's position is 32 days out of date.

Length 181 m; draft 8.2 m.

Type: Tanker. MMSI: 367703000.

Date/timePositionNaut miles runAvg speedWind from/ knotsBaromVisibWave heightAir tempDewpointWater temp
2017-Sep-20 04:53N 29°44' W 095°07'0 0.0
2017-Sep-20 04:30N 29°44' W 095°07'1 1.8
2017-Sep-20 04:01N 29°45' W 095°06'3 5.9
2017-Sep-20 03:30N 29°44' W 095°03'3 6.9
2017-Sep-20 03:00N 29°42' W 094°60'510.8
2017-Sep-20 02:30N 29°37' W 094°57'611.9
2017-Sep-20 02:00N 29°32' W 094°54'612.7
2017-Sep-20 01:31N 29°26' W 094°50'712.6
2017-Sep-20 00:58N 29°21' W 094°46'  
2017-Sep-16 18:31N 27°37' W 082°40'115.9
2017-Sep-16 18:28N 27°37' W 082°40'714.8
2017-Sep-16 18:01N 27°41' W 082°34'510.2
2017-Sep-16 17:31N 27°46' W 082°31'4 8.1
2017-Sep-16 17:00N 27°49' W 082°34'3 4.9
2017-Sep-16 16:28N 27°52' W 082°33'0 0.1
2017-Sep-16 15:58N 27°52' W 082°33'0 0.0
2017-Sep-16 15:22N 27°52' W 082°33'0 0.0
2017-Sep-16 14:58N 27°52' W 082°33'0 0.0
2017-Sep-16 14:28N 27°52' W 082°33'0 0.0
2017-Sep-16 13:58N 27°52' W 082°33'0 0.0
2017-Sep-16 13:28N 27°52' W 082°33'0 0.0
2017-Sep-16 12:52N 27°52' W 082°33'0 0.0
2017-Sep-16 12:28N 27°52' W 082°33'0 0.0
2017-Sep-16 11:58N 27°52' W 082°33'0 0.0
2017-Sep-16 11:28N 27°52' W 082°33'0 0.0
2017-Sep-16 10:58N 27°52' W 082°33'0 0.0
2017-Sep-16 10:22N 27°52' W 082°33'0 0.0
2017-Sep-16 09:58N 27°52' W 082°33'0 0.0
2017-Sep-16 09:28N 27°52' W 082°33'0 0.0
2017-Sep-16 08:58N 27°52' W 082°33'0 0.0
2017-Sep-16 08:28N 27°52' W 082°33'0 0.0
2017-Sep-16 07:58N 27°52' W 082°33'0 0.0
2017-Sep-16 07:28N 27°52' W 082°33'0 0.0
2017-Sep-16 06:55N 27°52' W 082°33'0 0.0
2017-Sep-16 06:28N 27°52' W 082°33'0 0.0
2017-Sep-16 05:58N 27°52' W 082°33'0 0.0
2017-Sep-16 05:28N 27°52' W 082°33'0 0.0
2017-Sep-16 04:58N 27°52' W 082°33'0 0.0
2017-Sep-16 04:28N 27°52' W 082°33'0 0.0
2017-Sep-16 03:49N 27°52' W 082°33'0 0.0
2017-Sep-16 03:28N 27°52' W 082°33'0 0.0
2017-Sep-16 02:58N 27°52' W 082°33'0 0.0
2017-Sep-16 02:28N 27°52' W 082°33'0 0.0
2017-Sep-16 01:58N 27°52' W 082°33'0 0.0
2017-Sep-16 01:25N 27°52' W 082°33'0 0.0
2017-Sep-16 00:58N 27°52' W 082°33'0 0.0
2017-Sep-16 00:28N 27°52' W 082°33'0 0.2
2017-Sep-16 00:00N 27°52' W 082°33'1 2.8
2017-Sep-15 23:30N 27°50' W 082°34'4 7.3
2017-Sep-15 23:00N 27°47' W 082°32'510.9
2017-Sep-15 22:30N 27°50' W 082°27'5 9.9
2017-Sep-15 22:00N 27°55' W 082°27'2 3.6
2017-Sep-15 21:30N 27°57' W 082°27'1 0.9
2017-Sep-15 20:58N 27°57' W 082°27'0 0.0
2017-Sep-15 20:28N 27°57' W 082°27'0 0.0
2017-Sep-15 19:58N 27°57' W 082°27'0 0.0
2017-Sep-15 19:28N 27°57' W 082°27'0 0.0
2017-Sep-15 18:58N 27°57' W 082°27'0 0.0
2017-Sep-15 18:28N 27°57' W 082°27'0 0.0
2017-Sep-15 17:58N 27°57' W 082°27'0 0.0
2017-Sep-15 17:25N 27°57' W 082°27'0 0.0
2017-Sep-15 16:58N 27°57' W 082°27'0 0.0
2017-Sep-15 16:28N 27°57' W 082°27'0 0.0
2017-Sep-15 15:58N 27°57' W 082°27'0 0.0
2017-Sep-15 15:28N 27°57' W 082°27'0 0.0
2017-Sep-15 14:58N 27°57' W 082°27'0 0.0
2017-Sep-15 14:28N 27°57' W 082°27'0 0.0
2017-Sep-15 13:58N 27°57' W 082°27'0 0.0
2017-Sep-15 13:28N 27°57' W 082°27'0 0.0
2017-Sep-15 12:58N 27°57' W 082°27'0 0.0
2017-Sep-15 12:28N 27°57' W 082°27'0 0.0
2017-Sep-15 11:58N 27°57' W 082°27'0 0.0
2017-Sep-15 11:28N 27°57' W 082°27'0 0.0
2017-Sep-15 10:58N 27°57' W 082°27'0 0.0
2017-Sep-15 10:28N 27°57' W 082°27'0 0.0
2017-Sep-15 09:58N 27°57' W 082°27'0 0.0
2017-Sep-15 09:28N 27°57' W 082°27'0 0.0
2017-Sep-15 08:58N 27°57' W 082°27'0 0.0
2017-Sep-15 08:25N 27°57' W 082°27'0 0.0
2017-Sep-15 07:58N 27°57' W 082°27'0 0.0
2017-Sep-15 07:28N 27°57' W 082°27'0 0.0
2017-Sep-15 06:58N 27°57' W 082°27'0 0.0
2017-Sep-15 06:28N 27°57' W 082°27'0 0.0
2017-Sep-15 05:58N 27°57' W 082°27'0 0.0
2017-Sep-15 05:28N 27°57' W 082°27'0 0.0
2017-Sep-15 04:58N 27°57' W 082°27'0 0.0
2017-Sep-15 04:28N 27°57' W 082°27'0 0.0
2017-Sep-15 03:58N 27°57' W 082°27'0 0.0
2017-Sep-15 03:28N 27°57' W 082°27'0 0.0
2017-Sep-15 02:58N 27°57' W 082°27'0 0.0
2017-Sep-15 02:28N 27°57' W 082°27'0 0.0
2017-Sep-15 01:58N 27°57' W 082°27'0 0.0
2017-Sep-15 01:28N 27°57' W 082°27'0 0.0
2017-Sep-15 00:58N 27°57' W 082°27'0 0.0
2017-Sep-15 00:28N 27°57' W 082°27'0 0.0
2017-Sep-14 23:58N 27°57' W 082°27'0 0.0
2017-Sep-14 23:25N 27°57' W 082°27'0 0.0
2017-Sep-14 22:58N 27°57' W 082°27'0 0.0
2017-Sep-14 22:28N 27°57' W 082°27'0 0.0
2017-Sep-14 21:58N 27°57' W 082°27'0 0.0
2017-Sep-14 21:28N 27°57' W 082°27'0 0.0
2017-Sep-14 20:58N 27°57' W 082°27'0 0.0
2017-Sep-14 20:28N 27°57' W 082°27'0 0.0
2017-Sep-14 19:58N 27°57' W 082°27'0 0.0
2017-Sep-14 19:28N 27°57' W 082°27'0 0.0
2017-Sep-14 18:58N 27°57' W 082°27'0 0.0
2017-Sep-14 18:25N 27°57' W 082°27'0 0.0
2017-Sep-14 17:58N 27°57' W 082°27'0 0.0
2017-Sep-14 17:22N 27°57' W 082°27'0 0.0
2017-Sep-14 16:58N 27°57' W 082°27'0 0.0
2017-Sep-14 16:28N 27°57' W 082°27'0 0.0
2017-Sep-14 15:58N 27°57' W 082°27'0 0.0
2017-Sep-14 15:28N 27°57' W 082°27'0 0.0
2017-Sep-14 14:58N 27°57' W 082°27'0 0.0
2017-Sep-14 14:28N 27°57' W 082°27'0 0.0
2017-Sep-14 13:58N 27°57' W 082°27'0 0.0
2017-Sep-14 13:28N 27°57' W 082°27'0 0.0
2017-Sep-14 12:58N 27°57' W 082°27'0 0.0
2017-Sep-14 12:28N 27°57' W 082°27'0 0.0
2017-Sep-14 11:58N 27°57' W 082°27'0 0.0
2017-Sep-14 11:28N 27°57' W 082°27'0 0.0
2017-Sep-14 10:58N 27°57' W 082°27'1 2.3
2017-Sep-14 10:30N 27°56' W 082°27'1 2.1
2017-Sep-14 09:58N 27°55' W 082°27'0 0.0
2017-Sep-14 09:28N 27°55' W 082°27'0 0.0
2017-Sep-14 08:58N 27°55' W 082°27'0 0.0
2017-Sep-14 08:28N 27°55' W 082°27'0 0.0
2017-Sep-14 07:58N 27°55' W 082°27'0 0.0
2017-Sep-14 07:28N 27°55' W 082°27'0 0.0
2017-Sep-14 06:58N 27°55' W 082°27'0 0.0
2017-Sep-14 06:28N 27°55' W 082°27'0 0.0
2017-Sep-14 05:58N 27°55' W 082°27'0 0.0
2017-Sep-14 05:28N 27°55' W 082°27'0 0.0
2017-Sep-14 04:58N 27°55' W 082°27'0 0.0
2017-Sep-14 04:28N 27°55' W 082°27'0 0.0
2017-Sep-14 03:58N 27°55' W 082°27'0 0.0
2017-Sep-14 03:25N 27°55' W 082°27'0 0.0
2017-Sep-14 02:58N 27°55' W 082°27'0 0.0
2017-Sep-14 02:28N 27°55' W 082°27'0 0.0
2017-Sep-14 01:58N 27°55' W 082°27'0 0.0
2017-Sep-14 01:28N 27°55' W 082°27'0 0.0
2017-Sep-14 00:58N 27°55' W 082°27'0 0.0
2017-Sep-14 00:28N 27°55' W 082°27'0 0.0
2017-Sep-13 23:58N 27°55' W 082°27'0 0.0
2017-Sep-13 23:28N 27°55' W 082°27'0 0.0
2017-Sep-13 22:58N 27°55' W 082°27'0 0.0
2017-Sep-13 22:28N 27°55' W 082°27'0 0.0
2017-Sep-13 21:58N 27°55' W 082°27'0 0.0
2017-Sep-13 21:28N 27°55' W 082°27'0 0.0
2017-Sep-13 20:58N 27°55' W 082°27'0 0.0
2017-Sep-13 20:28N 27°55' W 082°27'0 0.0
2017-Sep-13 19:58N 27°55' W 082°27'0 0.0
2017-Sep-13 19:28N 27°55' W 082°27'0 0.0
2017-Sep-13 18:55N 27°55' W 082°27'0 0.0
2017-Sep-13 18:28N 27°55' W 082°27'0 0.0
2017-Sep-13 17:58N 27°55' W 082°27'0 0.0
2017-Sep-13 17:28N 27°55' W 082°27'0 0.0
2017-Sep-13 16:58N 27°55' W 082°27'0 0.0
2017-Sep-13 16:28N 27°55' W 082°27'0 0.0
2017-Sep-13 15:58N 27°55' W 082°27'0 0.0
2017-Sep-13 15:28N 27°55' W 082°27'0 0.0
2017-Sep-13 14:58N 27°55' W 082°27'0 0.0
2017-Sep-13 14:28N 27°55' W 082°27'0 0.0
2017-Sep-13 13:58N 27°55' W 082°27'0 0.0
2017-Sep-13 13:28N 27°55' W 082°27'0 0.0
2017-Sep-13 12:58N 27°55' W 082°27'0 0.0
2017-Sep-13 12:28N 27°55' W 082°27'0 0.0
2017-Sep-13 11:55N 27°55' W 082°27'0 0.0
2017-Sep-13 11:28N 27°55' W 082°27'0 0.0
2017-Sep-13 10:58N 27°55' W 082°27'0 0.0
2017-Sep-13 10:28N 27°55' W 082°27'0 0.0
2017-Sep-13 09:58N 27°55' W 082°27'0 0.0
2017-Sep-13 09:28N 27°55' W 082°27'0 0.0
2017-Sep-13 08:58N 27°55' W 082°27'0 0.0
2017-Sep-13 08:28N 27°55' W 082°27'0 0.0
2017-Sep-13 07:58N 27°55' W 082°27'0 0.0
2017-Sep-13 07:28N 27°55' W 082°27'0 0.0
2017-Sep-13 06:58N 27°55' W 082°27'0 0.0
2017-Sep-13 06:28N 27°55' W 082°27'0 0.0
2017-Sep-13 05:58N 27°55' W 082°27'0 0.0
2017-Sep-13 05:28N 27°55' W 082°27'0 0.0
2017-Sep-13 04:58N 27°55' W 082°27'0 0.0
2017-Sep-13 04:28N 27°55' W 082°27'0 0.0
2017-Sep-13 03:58N 27°55' W 082°27'0 0.0
2017-Sep-13 03:28N 27°55' W 082°27'0 0.0
2017-Sep-13 02:58N 27°55' W 082°27'0 0.0
2017-Sep-13 02:28N 27°55' W 082°27'0 0.0
2017-Sep-13 01:58N 27°55' W 082°27'0 0.0
2017-Sep-13 01:28N 27°55' W 082°27'0 0.0
2017-Sep-13 00:58N 27°55' W 082°27'0 0.0
2017-Sep-13 00:28N 27°55' W 082°27'0 0.0
2017-Sep-12 23:55N 27°55' W 082°27'0 0.0
2017-Sep-12 23:28N 27°55' W 082°27'0 0.0
2017-Sep-12 22:58N 27°55' W 082°27'0 0.0
2017-Sep-12 22:30N 27°55' W 082°27'0 0.9
2017-Sep-12 22:00N 27°54' W 082°26'2 4.7
2017-Sep-12 21:30N 27°52' W 082°27'4 8.8
2017-Sep-12 21:00N 27°48' W 082°28'510.9
2017-Sep-12 20:30N 27°44' W 082°32'612.4
2017-Sep-12 20:00N 27°39' W 082°37'  
Track history (hours):
 
Tides and Currents Weather Stations Pressure Air Temp Water Temp Dewpoint Dewpoint Depression Visibility Wind Speed Wind Dir Waves Ship Positions

Overseas Long Beach

Owner: ASC Leasing II, Inc., KENNETT SQUARE, PA. More information available from US FCC via Universal Licensing System and Coast Guard Vessel Documentation Center.

Last reported at 2017-Sep-20 04:53 UTC. Time now 2017-Oct-22 17:39 UTC.
Position N 29°44' W 095°07'.
Warning: this ship's position is 32 days out of date.

Length 181 m; draft 8.2 m.

Type: Tanker. MMSI: 367703000.

Date/timePositionNaut miles runAvg speedWind from/ knotsBaromVisibWave heightAir tempDewpointWater temp
2017-Sep-20 04:53N 29°44' W 095°07'0 0.0
2017-Sep-20 04:30N 29°44' W 095°07'1 1.8
2017-Sep-20 04:01N 29°45' W 095°06'3 5.9
2017-Sep-20 03:30N 29°44' W 095°03'3 6.9
2017-Sep-20 03:00N 29°42' W 094°60'510.8
2017-Sep-20 02:30N 29°37' W 094°57'611.9
2017-Sep-20 02:00N 29°32' W 094°54'612.7
2017-Sep-20 01:31N 29°26' W 094°50'712.6
2017-Sep-20 00:58N 29°21' W 094°46'  
2017-Sep-16 18:31N 27°37' W 082°40'115.9
2017-Sep-16 18:28N 27°37' W 082°40'714.8
2017-Sep-16 18:01N 27°41' W 082°34'510.2
2017-Sep-16 17:31N 27°46' W 082°31'4 8.1
2017-Sep-16 17:00N 27°49' W 082°34'3 4.9
2017-Sep-16 16:28N 27°52' W 082°33'0 0.1
2017-Sep-16 15:58N 27°52' W 082°33'0 0.0
2017-Sep-16 15:22N 27°52' W 082°33'0 0.0
2017-Sep-16 14:58N 27°52' W 082°33'0 0.0
2017-Sep-16 14:28N 27°52' W 082°33'0 0.0
2017-Sep-16 13:58N 27°52' W 082°33'0 0.0
2017-Sep-16 13:28N 27°52' W 082°33'0 0.0
2017-Sep-16 12:52N 27°52' W 082°33'0 0.0
2017-Sep-16 12:28N 27°52' W 082°33'0 0.0
2017-Sep-16 11:58N 27°52' W 082°33'0 0.0
2017-Sep-16 11:28N 27°52' W 082°33'0 0.0
2017-Sep-16 10:58N 27°52' W 082°33'0 0.0
2017-Sep-16 10:22N 27°52' W 082°33'0 0.0
2017-Sep-16 09:58N 27°52' W 082°33'0 0.0
2017-Sep-16 09:28N 27°52' W 082°33'0 0.0
2017-Sep-16 08:58N 27°52' W 082°33'0 0.0
2017-Sep-16 08:28N 27°52' W 082°33'0 0.0
2017-Sep-16 07:58N 27°52' W 082°33'0 0.0
2017-Sep-16 07:28N 27°52' W 082°33'0 0.0
2017-Sep-16 06:55N 27°52' W 082°33'0 0.0
2017-Sep-16 06:28N 27°52' W 082°33'0 0.0
2017-Sep-16 05:58N 27°52' W 082°33'0 0.0
2017-Sep-16 05:28N 27°52' W 082°33'0 0.0
2017-Sep-16 04:58N 27°52' W 082°33'0 0.0
2017-Sep-16 04:28N 27°52' W 082°33'0 0.0
2017-Sep-16 03:49N 27°52' W 082°33'0 0.0
2017-Sep-16 03:28N 27°52' W 082°33'0 0.0
2017-Sep-16 02:58N 27°52' W 082°33'0 0.0
2017-Sep-16 02:28N 27°52' W 082°33'0 0.0
2017-Sep-16 01:58N 27°52' W 082°33'0 0.0
2017-Sep-16 01:25N 27°52' W 082°33'0 0.0
2017-Sep-16 00:58N 27°52' W 082°33'0 0.0
2017-Sep-16 00:28N 27°52' W 082°33'0 0.2
2017-Sep-16 00:00N 27°52' W 082°33'1 2.8
2017-Sep-15 23:30N 27°50' W 082°34'4 7.3
2017-Sep-15 23:00N 27°47' W 082°32'510.9
2017-Sep-15 22:30N 27°50' W 082°27'5 9.9
2017-Sep-15 22:00N 27°55' W 082°27'2 3.6
2017-Sep-15 21:30N 27°57' W 082°27'1 0.9
2017-Sep-15 20:58N 27°57' W 082°27'0 0.0
2017-Sep-15 20:28N 27°57' W 082°27'0 0.0
2017-Sep-15 19:58N 27°57' W 082°27'0 0.0
2017-Sep-15 19:28N 27°57' W 082°27'0 0.0
2017-Sep-15 18:58N 27°57' W 082°27'0 0.0
2017-Sep-15 18:28N 27°57' W 082°27'0 0.0
2017-Sep-15 17:58N 27°57' W 082°27'0 0.0
2017-Sep-15 17:25N 27°57' W 082°27'0 0.0
2017-Sep-15 16:58N 27°57' W 082°27'0 0.0
2017-Sep-15 16:28N 27°57' W 082°27'0 0.0
2017-Sep-15 15:58N 27°57' W 082°27'0 0.0
2017-Sep-15 15:28N 27°57' W 082°27'0 0.0
2017-Sep-15 14:58N 27°57' W 082°27'0 0.0
2017-Sep-15 14:28N 27°57' W 082°27'0 0.0
2017-Sep-15 13:58N 27°57' W 082°27'0 0.0
2017-Sep-15 13:28N 27°57' W 082°27'0 0.0
2017-Sep-15 12:58N 27°57' W 082°27'0 0.0
2017-Sep-15 12:28N 27°57' W 082°27'0 0.0
2017-Sep-15 11:58N 27°57' W 082°27'0 0.0
2017-Sep-15 11:28N 27°57' W 082°27'0 0.0
2017-Sep-15 10:58N 27°57' W 082°27'0 0.0
2017-Sep-15 10:28N 27°57' W 082°27'0 0.0
2017-Sep-15 09:58N 27°57' W 082°27'0 0.0
2017-Sep-15 09:28N 27°57' W 082°27'0 0.0
2017-Sep-15 08:58N 27°57' W 082°27'0 0.0
2017-Sep-15 08:25N 27°57' W 082°27'0 0.0
2017-Sep-15 07:58N 27°57' W 082°27'0 0.0
2017-Sep-15 07:28N 27°57' W 082°27'0 0.0
2017-Sep-15 06:58N 27°57' W 082°27'0 0.0
2017-Sep-15 06:28N 27°57' W 082°27'0 0.0
2017-Sep-15 05:58N 27°57' W 082°27'0 0.0
2017-Sep-15 05:28N 27°57' W 082°27'0 0.0
2017-Sep-15 04:58N 27°57' W 082°27'0 0.0
2017-Sep-15 04:28N 27°57' W 082°27'0 0.0
2017-Sep-15 03:58N 27°57' W 082°27'0 0.0
2017-Sep-15 03:28N 27°57' W 082°27'0 0.0
2017-Sep-15 02:58N 27°57' W 082°27'0 0.0
2017-Sep-15 02:28N 27°57' W 082°27'0 0.0
2017-Sep-15 01:58N 27°57' W 082°27'0 0.0
2017-Sep-15 01:28N 27°57' W 082°27'0 0.0
2017-Sep-15 00:58N 27°57' W 082°27'0 0.0
2017-Sep-15 00:28N 27°57' W 082°27'0 0.0
2017-Sep-14 23:58N 27°57' W 082°27'0 0.0
2017-Sep-14 23:25N 27°57' W 082°27'0 0.0
2017-Sep-14 22:58N 27°57' W 082°27'0 0.0
2017-Sep-14 22:28N 27°57' W 082°27'0 0.0
2017-Sep-14 21:58N 27°57' W 082°27'0 0.0
2017-Sep-14 21:28N 27°57' W 082°27'0 0.0
2017-Sep-14 20:58N 27°57' W 082°27'0 0.0
2017-Sep-14 20:28N 27°57' W 082°27'0 0.0
2017-Sep-14 19:58N 27°57' W 082°27'0 0.0
2017-Sep-14 19:28N 27°57' W 082°27'0 0.0
2017-Sep-14 18:58N 27°57' W 082°27'0 0.0
2017-Sep-14 18:25N 27°57' W 082°27'0 0.0
2017-Sep-14 17:58N 27°57' W 082°27'0 0.0
2017-Sep-14 17:22N 27°57' W 082°27'0 0.0
2017-Sep-14 16:58N 27°57' W 082°27'0 0.0
2017-Sep-14 16:28N 27°57' W 082°27'0 0.0
2017-Sep-14 15:58N 27°57' W 082°27'0 0.0
2017-Sep-14 15:28N 27°57' W 082°27'0 0.0
2017-Sep-14 14:58N 27°57' W 082°27'0 0.0
2017-Sep-14 14:28N 27°57' W 082°27'0 0.0
2017-Sep-14 13:58N 27°57' W 082°27'0 0.0
2017-Sep-14 13:28N 27°57' W 082°27'0 0.0
2017-Sep-14 12:58N 27°57' W 082°27'0 0.0
2017-Sep-14 12:28N 27°57' W 082°27'0 0.0
2017-Sep-14 11:58N 27°57' W 082°27'0 0.0
2017-Sep-14 11:28N 27°57' W 082°27'0 0.0
2017-Sep-14 10:58N 27°57' W 082°27'1 2.3
2017-Sep-14 10:30N 27°56' W 082°27'1 2.1
2017-Sep-14 09:58N 27°55' W 082°27'0 0.0
2017-Sep-14 09:28N 27°55' W 082°27'0 0.0
2017-Sep-14 08:58N 27°55' W 082°27'0 0.0
2017-Sep-14 08:28N 27°55' W 082°27'0 0.0
2017-Sep-14 07:58N 27°55' W 082°27'0 0.0
2017-Sep-14 07:28N 27°55' W 082°27'0 0.0
2017-Sep-14 06:58N 27°55' W 082°27'0 0.0
2017-Sep-14 06:28N 27°55' W 082°27'0 0.0
2017-Sep-14 05:58N 27°55' W 082°27'0 0.0
2017-Sep-14 05:28N 27°55' W 082°27'0 0.0
2017-Sep-14 04:58N 27°55' W 082°27'0 0.0
2017-Sep-14 04:28N 27°55' W 082°27'0 0.0
2017-Sep-14 03:58N 27°55' W 082°27'0 0.0
2017-Sep-14 03:25N 27°55' W 082°27'0 0.0
2017-Sep-14 02:58N 27°55' W 082°27'0 0.0
2017-Sep-14 02:28N 27°55' W 082°27'0 0.0
2017-Sep-14 01:58N 27°55' W 082°27'0 0.0
2017-Sep-14 01:28N 27°55' W 082°27'0 0.0
2017-Sep-14 00:58N 27°55' W 082°27'0 0.0
2017-Sep-14 00:28N 27°55' W 082°27'0 0.0
2017-Sep-13 23:58N 27°55' W 082°27'0 0.0
2017-Sep-13 23:28N 27°55' W 082°27'0 0.0
2017-Sep-13 22:58N 27°55' W 082°27'0 0.0
2017-Sep-13 22:28N 27°55' W 082°27'0 0.0
2017-Sep-13 21:58N 27°55' W 082°27'0 0.0
2017-Sep-13 21:28N 27°55' W 082°27'0 0.0
2017-Sep-13 20:58N 27°55' W 082°27'0 0.0
2017-Sep-13 20:28N 27°55' W 082°27'0 0.0
2017-Sep-13 19:58N 27°55' W 082°27'0 0.0
2017-Sep-13 19:28N 27°55' W 082°27'0 0.0
2017-Sep-13 18:55N 27°55' W 082°27'0 0.0
2017-Sep-13 18:28N 27°55' W 082°27'0 0.0
2017-Sep-13 17:58N 27°55' W 082°27'0 0.0
2017-Sep-13 17:28N 27°55' W 082°27'0 0.0
2017-Sep-13 16:58N 27°55' W 082°27'0 0.0
2017-Sep-13 16:28N 27°55' W 082°27'0 0.0
2017-Sep-13 15:58N 27°55' W 082°27'0 0.0
2017-Sep-13 15:28N 27°55' W 082°27'0 0.0
2017-Sep-13 14:58N 27°55' W 082°27'0 0.0
2017-Sep-13 14:28N 27°55' W 082°27'0 0.0
2017-Sep-13 13:58N 27°55' W 082°27'0 0.0
2017-Sep-13 13:28N 27°55' W 082°27'0 0.0
2017-Sep-13 12:58N 27°55' W 082°27'0 0.0
2017-Sep-13 12:28N 27°55' W 082°27'0 0.0
2017-Sep-13 11:55N 27°55' W 082°27'0 0.0
2017-Sep-13 11:28N 27°55' W 082°27'0 0.0
2017-Sep-13 10:58N 27°55' W 082°27'0 0.0
2017-Sep-13 10:28N 27°55' W 082°27'0 0.0
2017-Sep-13 09:58N 27°55' W 082°27'0 0.0
2017-Sep-13 09:28N 27°55' W 082°27'0 0.0
2017-Sep-13 08:58N 27°55' W 082°27'0 0.0
2017-Sep-13 08:28N 27°55' W 082°27'0 0.0
2017-Sep-13 07:58N 27°55' W 082°27'0 0.0
2017-Sep-13 07:28N 27°55' W 082°27'0 0.0
2017-Sep-13 06:58N 27°55' W 082°27'0 0.0
2017-Sep-13 06:28N 27°55' W 082°27'0 0.0
2017-Sep-13 05:58N 27°55' W 082°27'0 0.0
2017-Sep-13 05:28N 27°55' W 082°27'0 0.0
2017-Sep-13 04:58N 27°55' W 082°27'0 0.0
2017-Sep-13 04:28N 27°55' W 082°27'0 0.0
2017-Sep-13 03:58N 27°55' W 082°27'0 0.0
2017-Sep-13 03:28N 27°55' W 082°27'0 0.0
2017-Sep-13 02:58N 27°55' W 082°27'0 0.0
2017-Sep-13 02:28N 27°55' W 082°27'0 0.0
2017-Sep-13 01:58N 27°55' W 082°27'0 0.0
2017-Sep-13 01:28N 27°55' W 082°27'0 0.0
2017-Sep-13 00:58N 27°55' W 082°27'0 0.0
2017-Sep-13 00:28N 27°55' W 082°27'0 0.0
2017-Sep-12 23:55N 27°55' W 082°27'0 0.0
2017-Sep-12 23:28N 27°55' W 082°27'0 0.0
2017-Sep-12 22:58N 27°55' W 082°27'0 0.0
2017-Sep-12 22:30N 27°55' W 082°27'0 0.9
2017-Sep-12 22:00N 27°54' W 082°26'2 4.7
2017-Sep-12 21:30N 27°52' W 082°27'4 8.8
2017-Sep-12 21:00N 27°48' W 082°28'510.9
2017-Sep-12 20:30N 27°44' W 082°32'612.4
2017-Sep-12 20:00N 27°39' W 082°37'  

Dump ship's entire track history